Time;durP1;ratioP1;P1;durP2;ratioP2;P2;SDS_P1;SDS_P2;PMS_P1;PMS_P2;Temp;Humidity;BMP_temperature;BMP_pressure;BME280_temperature;BME280_humidity;BME280_pressure;Samples;Min_cycle;Max_cycle;Signal;HPM_P1;HPM_P2
2020/12/23 00:01:21;;;;;;;19.98;12.47;;;;;;;-2.87;89.46;99661.09;1798132;79;21520;-64
2020/12/23 00:03:50;;;;;;;19.25;11.90;;;;;;;-2.88;89.47;99656.73;1795901;78;21635;-64
2020/12/23 00:06:20;;;;;;;17.85;10.82;;;;;;;-2.86;89.50;99652.95;1797010;78;21065;-64
2020/12/23 00:08:49;;;;;;;17.77;11.10;;;;;;;-2.83;89.53;99650.56;1798056;79;21207;-65
2020/12/23 00:11:19;;;;;;;17.52;10.63;;;;;;;-2.83;89.54;99647.10;1784471;80;20934;-64
2020/12/23 00:13:48;;;;;;;20.05;11.90;;;;;;;-2.84;89.53;99652.63;1784548;80;21512;-64
2020/12/23 00:16:17;;;;;;;16.82;11.30;;;;;;;-2.86;89.59;99649.08;1784544;80;21076;-64
2020/12/23 00:18:47;;;;;;;17.55;11.65;;;;;;;-2.86;89.60;99649.08;1792560;78;21080;-64
2020/12/23 00:21:16;;;;;;;18.20;11.65;;;;;;;-2.84;89.62;99642.30;1816643;79;21158;-64
2020/12/23 00:23:45;;;;;;;18.37;11.15;;;;;;;-2.85;89.62;99634.08;1816753;79;21520;-65
2020/12/23 00:26:14;;;;;;;19.60;10.80;;;;;;;-2.85;89.65;99637.95;1816643;79;21144;-64
2020/12/23 00:28:46;;;;;;;17.75;11.28;;;;;;;-2.85;89.70;99636.66;1815500;79;20994;-65
2020/12/23 00:31:16;;;;;;;19.10;11.20;;;;;;;-2.86;89.68;99634.88;1784868;80;20987;-64
2020/12/23 00:33:45;;;;;;;16.70;10.93;;;;;;;-2.86;89.69;99638.75;1784563;80;22047;-64
2020/12/23 00:36:16;;;;;;;20.17;11.18;;;;;;;-2.85;89.70;99633.67;1784360;80;21011;-64
2020/12/23 00:38:45;;;;;;;19.40;11.08;;;;;;;-2.85;89.68;99629.80;1804151;78;21609;-65
2020/12/23 00:41:13;;;;;;;19.12;11.00;;;;;;;-2.85;89.71;99631.50;1784443;80;21550;-65
2020/12/23 00:43:42;;;;;;;17.92;10.88;;;;;;;-2.82;89.70;99636.86;1784987;79;21584;-64
2020/12/23 00:46:12;;;;;;;16.00;10.32;;;;;;;-2.78;89.68;99632.34;1822461;78;22200;-64
2020/12/23 00:48:42;;;;;;;18.15;11.90;;;;;;;-2.78;89.67;99622.02;1822525;78;21036;-64
2020/12/23 00:51:13;;;;;;;16.67;10.98;;;;;;;-2.75;89.67;99624.77;1822667;78;21017;-64
2020/12/23 00:53:43;;;;;;;16.20;10.45;;;;;;;-2.71;89.64;99616.77;1822760;78;21005;-64
2020/12/23 00:56:13;;;;;;;16.67;10.93;;;;;;;-2.71;89.63;99616.77;1822101;78;21532;-64
2020/12/23 00:58:42;;;;;;;18.17;10.53;;;;;;;-2.69;89.60;99613.47;1822777;78;21370;-64
2020/12/23 01:01:11;;;;;;;17.30;11.22;;;;;;;-2.70;89.60;99610.41;1822750;78;21195;-63
2020/12/23 01:03:42;;;;;;;16.70;11.10;;;;;;;-2.70;89.59;99611.69;1821582;78;21179;-64
2020/12/23 01:06:12;;;;;;;16.97;10.80;;;;;;;-2.74;89.60;99614.03;1795042;78;21569;-64
2020/12/23 01:08:42;;;;;;;17.70;9.95;;;;;;;-2.73;89.59;99610.23;1782142;80;21177;-64
2020/12/23 01:11:12;;;;;;;17.15;10.85;;;;;;;-2.71;89.63;99610.32;1782110;80;21169;-64
2020/12/23 01:13:41;;;;;;;18.65;10.70;;;;;;;-2.72;89.62;99609.43;1782061;80;21097;-64
2020/12/23 01:16:10;;;;;;;16.48;9.83;;;;;;;-2.71;89.55;99606.45;1785886;79;20939;-65
2020/12/23 01:18:39;;;;;;;18.40;10.40;;;;;;;-2.71;89.56;99615.48;1798321;79;21029;-64
2020/12/23 01:21:08;;;;;;;19.55;11.20;;;;;;;-2.71;89.52;99599.99;1798438;79;21464;-64
2020/12/23 01:23:38;;;;;;;21.23;11.88;;;;;;;-2.67;89.49;99601.52;1798445;79;22026;-64
2020/12/23 01:26:07;;;;;;;21.05;11.40;;;;;;;-2.70;89.38;99602.66;1787050;79;21507;-64
2020/12/23 01:28:37;;;;;;;18.65;11.35;;;;;;;-2.68;89.31;99596.28;1751312;80;21500;-64
2020/12/23 01:31:07;;;;;;;22.58;12.73;;;;;;;-2.65;89.23;99593.86;1781887;80;21057;-64
2020/12/23 01:33:36;;;;;;;20.65;12.30;;;;;;;-2.67;89.17;99581.27;1765522;80;21096;-64
2020/12/23 01:36:06;;;;;;;19.75;12.40;;;;;;;-2.66;89.08;99569.73;1751187;82;21190;-64
2020/12/23 01:38:34;;;;;;;20.43;11.95;;;;;;;-2.68;89.06;99573.92;1751084;82;21626;-64
2020/12/23 01:41:05;;;;;;;22.27;12.68;;;;;;;-2.70;89.05;99557.88;1751204;80;21178;-64
2020/12/23 01:43:34;;;;;;;19.62;12.07;;;;;;;-2.70;89.06;99561.34;1763917;79;21043;-64
2020/12/23 01:46:03;;;;;;;20.43;12.25;;;;;;;-2.68;89.08;99562.71;1751194;81;21196;-64
2020/12/23 01:48:32;;;;;;;20.55;12.23;;;;;;;-2.70;89.03;99560.05;1751075;82;22175;-64
2020/12/23 01:51:01;;;;;;;20.10;12.28;;;;;;;-2.65;89.00;99557.70;1751059;81;20951;-64
2020/12/23 01:53:30;;;;;;;23.70;13.28;;;;;;;-2.63;89.00;99550.92;1766072;79;21069;-64
2020/12/23 01:56:00;;;;;;;22.75;12.65;;;;;;;-2.64;89.00;99540.11;1766380;79;21468;-64
2020/12/23 01:58:29;;;;;;;20.60;12.30;;;;;;;-2.64;89.04;99531.08;1786773;79;21058;-64
2020/12/23 02:01:00;;;;;;;21.50;10.70;;;;;;;-2.63;89.08;99525.98;1780148;79;22776;-64
2020/12/23 02:03:29;;;;;;;19.77;12.10;;;;;;;-2.61;89.12;99520.91;1797879;79;21077;-64
2020/12/23 02:05:58;;;;;;;17.82;11.53;;;;;;;-2.64;89.13;99519.45;1798203;79;21037;-63
2020/12/23 02:08:27;;;;;;;20.92;12.35;;;;;;;-2.65;89.21;99523.73;1798193;79;21480;-64
2020/12/23 02:10:55;;;;;;;18.98;12.18;;;;;;;-2.65;89.27;99531.48;1795995;78;21531;-64
2020/12/23 02:13:41;;;;;;;20.68;12.47;;;;;;;-2.65;89.29;99525.02;1785930;79;22314;-64
2020/12/23 02:16:10;;;;;;;20.12;12.07;;;;;;;-2.62;89.33;99527.77;1797218;78;21068;-65
2020/12/23 02:18:40;;;;;;;24.30;12.88;;;;;;;-2.64;89.37;99521.63;1785213;79;20948;-64
2020/12/23 02:21:10;;;;;;;22.42;12.85;;;;;;;-2.65;89.42;99523.73;1777446;80;21482;-64
2020/12/23 02:23:40;;;;;;;26.33;13.38;;;;;;;-2.63;89.48;99522.52;1781974;80;21078;-64
2020/12/23 02:26:09;;;;;;;24.92;13.75;;;;;;;-2.63;89.50;99513.08;1782274;80;21545;-64
2020/12/23 02:28:37;;;;;;;28.45;14.95;;;;;;;-2.63;89.53;99510.50;1782936;79;20988;-64
2020/12/23 02:31:05;;;;;;;26.87;14.75;;;;;;;-2.64;89.54;99516.47;1782267;80;21490;-64
2020/12/23 02:33:33;;;;;;;29.32;15.20;;;;;;;-2.62;89.55;99516.14;1791354;79;20946;-64
2020/12/23 02:36:03;;;;;;;25.77;14.13;;;;;;;-2.57;89.53;99511.21;1814275;79;21069;-64
2020/12/23 02:38:32;;;;;;;28.50;13.98;;;;;;;-2.59;89.49;99518.88;1811915;78;21278;-62
2020/12/23 02:41:01;;;;;;;32.48;15.43;;;;;;;-2.62;89.50;99512.27;1814202;78;20962;-65
2020/12/23 02:43:31;;;;;;;27.77;15.13;;;;;;;-2.64;89.52;99513.89;1814298;78;21466;-65
2020/12/23 02:46:01;;;;;;;28.75;15.13;;;;;;;-2.67;89.55;99508.56;1814156;78;20922;-65
2020/12/23 02:48:31;;;;;;;30.90;15.95;;;;;;;-2.66;89.58;99513.33;1799353;79;20945;-65
2020/12/23 02:50:59;;;;;;;28.65;14.75;;;;;;;-2.66;89.62;99511.63;1782164;80;21443;-64
2020/12/23 02:53:29;;;;;;;31.42;15.20;;;;;;;-2.62;89.63;99508.80;1782245;80;20971;-65
2020/12/23 02:56:03;;;;;;;31.57;15.72;;;;;;;-2.65;89.72;99492.74;1782041;80;21106;-65
2020/12/23 02:58:32;;;;;;;29.70;14.65;;;;;;;-2.66;89.77;99503.88;1791232;79;20930;-65
2020/12/23 03:01:00;;;;;;;34.78;15.45;;;;;;;-2.61;89.82;99512.75;1814291;78;21061;-64
2020/12/23 03:03:29;;;;;;;35.35;16.55;;;;;;;-2.56;89.84;99512.58;1814292;78;21412;-64
2020/12/23 03:05:57;;;;;;;30.82;15.18;;;;;;;-2.55;89.85;99504.42;1810841;79;21085;-64
2020/12/23 03:08:26;;;;;;;32.50;16.23;;;;;;;-2.54;89.83;99513.55;1814264;78;21488;-64
2020/12/23 03:10:56;;;;;;;34.67;16.23;;;;;;;-2.58;89.86;99505.16;1784503;79;21069;-65
2020/12/23 03:13:25;;;;;;;42.58;18.60;;;;;;;-2.55;89.84;99509.59;1804687;78;21049;-65
2020/12/23 03:15:54;;;;;;;33.65;15.93;;;;;;;-2.57;89.86;99501.77;1814309;78;22338;-65
2020/12/23 03:18:23;;;;;;;36.65;17.37;;;;;;;-2.57;89.87;99500.48;1814239;78;20961;-65
2020/12/23 03:20:52;;;;;;;36.75;19.37;;;;;;;-2.56;89.88;99503.54;1791403;79;20958;-66
2020/12/23 03:23:21;;;;;;;31.52;16.85;;;;;;;-2.55;89.87;99496.68;1782219;79;20887;-64
2020/12/23 03:25:50;;;;;;;37.30;19.07;;;;;;;-2.54;89.88;99490.30;1782232;79;20938;-64
2020/12/23 03:28:18;;;;;;;33.23;17.50;;;;;;;-2.55;89.88;99491.52;1782317;80;22098;-64
2020/12/23 03:30:47;;;;;;;32.98;16.10;;;;;;;-2.56;89.89;99489.34;1782730;79;20950;-64
2020/12/23 03:33:15;;;;;;;35.33;18.62;;;;;;;-2.55;89.92;99496.28;1782151;80;20989;-63
2020/12/23 03:35:44;;;;;;;38.42;18.52;;;;;;;-2.50;89.92;99487.88;1782127;80;21006;-62
2020/12/23 03:38:13;;;;;;;31.62;16.40;;;;;;;-2.45;89.89;99488.58;1782294;80;21481;-63
2020/12/23 03:40:42;;;;;;;38.28;16.95;;;;;;;-2.45;89.87;99486.00;1782882;79;21514;-63
2020/12/23 03:43:10;;;;;;;35.63;16.48;;;;;;;-2.45;89.84;99485.11;1775259;80;21104;-63
2020/12/23 03:45:39;;;;;;;29.32;15.58;;;;;;;-2.45;89.82;99486.00;1782221;80;21468;-63
2020/12/23 03:48:08;;;;;;;35.73;17.48;;;;;;;-2.43;89.83;99493.83;1782110;80;20930;-66
2020/12/23 03:50:37;;;;;;;36.55;16.57;;;;;;;-2.45;89.82;99488.98;1782750;78;20932;-64
2020/12/23 03:53:06;;;;;;;34.53;18.42;;;;;;;-2.47;89.84;99477.28;1782095;80;21376;-64
2020/12/23 03:55:34;;;;;;;38.70;18.67;;;;;;;-2.41;89.83;99480.58;1787960;78;20981;-64
2020/12/23 03:58:02;;;;;;;33.90;17.57;;;;;;;-2.36;89.85;99488.19;1814249;78;20942;-65
2020/12/23 04:00:31;;;;;;;41.30;17.27;;;;;;;-2.35;89.79;99473.17;1814164;78;20934;-65
2020/12/23 04:03:00;;;;;;;32.88;16.12;;;;;;;-2.35;89.77;99475.34;1814232;79;20934;-65
2020/12/23 04:05:30;;;;;;;33.40;18.00;;;;;;;-2.36;89.77;99478.74;1811449;78;21265;-66
2020/12/23 04:08:00;;;;;;;32.80;18.73;;;;;;;-2.34;89.75;99477.13;1810603;78;21085;-64
2020/12/23 04:10:29;;;;;;;34.33;18.98;;;;;;;-2.30;89.78;99476.87;1804981;79;20927;-63
2020/12/23 04:12:58;;;;;;;39.13;19.23;;;;;;;-2.26;89.83;99466.76;1792071;79;20912;-63
2020/12/23 04:15:26;;;;;;;37.38;19.48;;;;;;;-2.22;89.84;99460.05;1779661;79;20931;-63
2020/12/23 04:17:56;;;;;;;34.27;19.45;;;;;;;-2.19;89.83;99451.14;1798520;79;21239;-63
2020/12/23 04:20:24;;;;;;;37.45;17.95;;;;;;;-2.16;89.79;99449.12;1796935;79;21108;-64
2020/12/23 04:22:55;;;;;;;36.28;18.82;;;;;;;-2.16;89.76;99443.55;1776998;79;21494;-66
2020/12/23 04:25:24;;;;;;;37.48;18.00;;;;;;;-2.14;89.80;99447.49;1773906;79;21509;-65
2020/12/23 04:27:53;;;;;;;37.83;18.62;;;;;;;-2.15;89.78;99441.84;1776261;79;21158;-64
2020/12/23 04:30:22;;;;;;;38.08;18.20;;;;;;;-2.18;89.81;99437.41;1776864;79;21250;-59
2020/12/23 04:32:50;;;;;;;35.70;17.92;;;;;;;-2.18;89.86;99432.25;1794296;79;20998;-74
2020/12/23 04:35:19;;;;;;;36.05;18.05;;;;;;;-2.17;89.91;99431.84;1784775;79;21193;-72
2020/12/23 04:37:48;;;;;;;37.20;18.42;;;;;;;-2.17;89.92;99421.09;1775109;79;20944;-73
2020/12/23 04:40:16;;;;;;;36.80;17.90;;;;;;;-2.17;89.93;99426.27;1750912;79;21512;-72
2020/12/23 04:42:44;;;;;;;34.53;18.65;;;;;;;-2.18;89.95;99424.90;1774161;80;22097;-72
2020/12/23 04:45:13;;;;;;;32.90;17.82;;;;;;;-2.20;90.00;99422.23;1785980;79;21447;-73
2020/12/23 04:47:42;;;;;;;36.40;18.35;;;;;;;-2.20;90.08;99437.75;1787497;79;20938;-72
2020/12/23 04:50:10;;;;;;;39.23;18.35;;;;;;;-2.20;90.10;99439.04;1803087;79;21053;-73
2020/12/23 04:52:39;;;;;;;34.45;18.50;;;;;;;-2.18;90.15;99432.25;1779395;79;20920;-67
2020/12/23 04:55:07;;;;;;;34.45;17.98;;;;;;;-2.17;90.17;99426.67;1763153;79;21201;-66
2020/12/23 04:57:36;;;;;;;36.90;18.02;;;;;;;-2.15;90.19;99428.52;1805888;79;21497;-61
2020/12/23 05:00:06;;;;;;;38.45;18.45;;;;;;;-2.13;90.16;99437.23;1775301;79;20970;-70
2020/12/23 05:02:35;;;;;;;40.20;19.92;;;;;;;-2.12;90.17;99432.54;1800727;79;20930;-66
2020/12/23 05:05:05;;;;;;;36.03;19.35;;;;;;;-2.10;90.18;99438.67;1783228;79;20946;-71
2020/12/23 05:07:33;;;;;;;33.65;17.98;;;;;;;-2.05;90.17;99433.72;1777645;79;22196;-70
2020/12/23 05:10:02;;;;;;;37.45;18.52;;;;;;;-2.01;90.13;99440.80;1799525;79;20970;-71
2020/12/23 05:12:30;;;;;;;31.20;17.98;;;;;;;-1.96;90.10;99452.25;1766821;80;20945;-70
2020/12/23 05:15:05;;;;;;;37.83;19.90;;;;;;;-1.97;90.05;99453.06;1739249;81;21484;-67
2020/12/23 05:17:35;;;;;;;37.60;19.87;;;;;;;-1.96;90.04;99454.84;1774205;79;21077;-68
2020/12/23 05:20:04;;;;;;;38.45;19.73;;;;;;;-1.97;90.06;99455.65;1801293;79;21242;-68
2020/12/23 05:22:32;;;;;;;39.42;20.25;;;;;;;-1.96;90.08;99448.38;1805174;79;20962;-69
2020/12/23 05:25:01;;;;;;;39.67;20.90;;;;;;;-1.96;90.11;99448.38;1794375;79;20938;-70
2020/12/23 05:27:32;;;;;;;38.55;19.50;;;;;;;-1.97;90.18;99446.20;1813534;78;21092;-66
2020/12/23 05:30:02;;;;;;;37.23;19.85;;;;;;;-1.96;90.28;99449.26;1780496;79;21069;-68
2020/12/23 05:32:37;;;;;;;33.15;18.40;;;;;;;-1.96;90.31;99445.38;1779884;78;21607;-64
2020/12/23 05:35:06;;;;;;;33.38;16.23;;;;;;;-1.98;90.36;99441.84;1812912;79;21136;-65
2020/12/23 05:37:35;;;;;;;31.97;18.92;;;;;;;-1.96;90.42;99449.67;1813871;79;20953;-65
2020/12/23 05:40:04;;;;;;;34.53;18.73;;;;;;;-1.95;90.47;99452.33;1814339;78;20930;-65
2020/12/23 05:42:32;;;;;;;34.55;19.70;;;;;;;-1.96;90.49;99447.08;1814387;78;20931;-64
2020/12/23 05:45:00;;;;;;;34.40;18.40;;;;;;;-1.97;90.54;99447.89;1814444;78;22108;-65
2020/12/23 05:47:29;;;;;;;40.20;19.87;;;;;;;-1.98;90.59;99443.54;1814202;79;21124;-65
2020/12/23 05:49:57;;;;;;;35.17;18.80;;;;;;;-1.97;90.65;99437.15;1814325;79;21049;-65
2020/12/23 05:52:27;;;;;;;36.68;18.00;;;;;;;-1.99;90.70;99436.19;1814314;78;21053;-64
2020/12/23 05:54:55;;;;;;;39.15;19.37;;;;;;;-2.00;90.73;99438.30;1814354;78;20918;-64
2020/12/23 05:57:23;;;;;;;33.55;17.25;;;;;;;-2.01;90.83;99437.81;1814347;78;21152;-64
2020/12/23 05:59:52;;;;;;;36.80;18.32;;;;;;;-2.04;90.92;99429.92;1814282;79;21100;-64
2020/12/23 06:02:20;;;;;;;33.65;18.42;;;;;;;-2.06;91.02;99431.54;1814287;78;20966;-64
2020/12/23 06:04:48;;;;;;;35.30;19.40;;;;;;;-2.07;91.11;99431.06;1814324;79;20903;-65
2020/12/23 06:07:18;;;;;;;37.00;19.42;;;;;;;-2.09;91.24;99426.22;1814324;78;20953;-65
2020/12/23 06:09:49;;;;;;;34.70;18.45;;;;;;;-2.09;91.32;99430.10;1814237;79;21388;-65
2020/12/23 06:12:22;;;;;;;32.90;19.12;;;;;;;-2.09;91.48;99432.69;1814257;78;20899;-64
2020/12/23 06:14:57;;;;;;;35.70;18.80;;;;;;;-2.09;91.62;99430.51;1814531;79;21458;-64
2020/12/23 06:17:26;;;;;;;36.38;19.62;;;;;;;-2.11;91.81;99431.73;1814250;79;21084;-64
2020/12/23 06:19:57;;;;;;;40.10;19.73;;;;;;;-2.12;92.07;99432.54;1814271;78;21064;-64
2020/12/23 06:22:26;;;;;;;34.35;19.10;;;;;;;-2.13;92.32;99437.23;1814412;78;21496;-64
2020/12/23 06:25:00;;;;;;;40.70;20.40;;;;;;;-2.15;92.59;99435.38;1814330;78;21461;-64
2020/12/23 06:27:25;;;;;;;39.05;20.62;;;;;;;-2.17;94.14;99439.19;1814065;79;20953;-64
2020/12/23 06:29:54;;;;;;;36.23;19.52;;;;;;;-2.18;94.92;99445.17;1781025;79;20942;-64
2020/12/23 06:32:23;;;;;;;34.88;18.40;;;;;;;-2.17;95.42;99448.23;1814281;78;21085;-64
2020/12/23 06:34:59;;;;;;;34.18;18.50;;;;;;;-2.17;95.73;99444.35;1814312;79;21407;-64
2020/12/23 06:37:31;;;;;;;38.08;18.87;;;;;;;-2.15;96.09;99447.02;1814114;78;21100;-64
2020/12/23 06:40:00;;;;;;;36.25;19.65;;;;;;;-2.17;96.48;99444.77;1814498;79;28131;-64
2020/12/23 06:42:29;;;;;;;35.25;17.85;;;;;;;-2.20;96.77;99444.20;1780949;79;21473;-64
2020/12/23 06:45:04;;;;;;;38.55;19.15;;;;;;;-2.21;97.01;99451.48;1814337;79;20919;-64
2020/12/23 06:47:33;;;;;;;34.60;19.40;;;;;;;-2.22;97.22;99453.17;1814340;78;22054;-65
2020/12/23 06:50:17;;;;;;;34.18;19.62;;;;;;;-2.22;97.41;99454.88;1814350;79;21092;-64
2020/12/23 06:52:46;;;;;;;35.63;19.87;;;;;;;-2.24;97.57;99447.45;1809980;79;20939;-64
2020/12/23 06:55:18;;;;;;;34.00;19.00;;;;;;;-2.24;97.73;99441.88;1814245;78;21083;-65
2020/12/23 06:57:49;;;;;;;34.50;19.45;;;;;;;-2.24;97.85;99439.70;1814288;79;20945;-65
2020/12/23 07:00:30;;;;;;;37.17;19.60;;;;;;;-2.23;97.98;99440.18;1814278;79;21456;-65
2020/12/23 07:03:04;;;;;;;;;;;;;;;-2.24;98.11;99432.84;1816983;79;21084;-64
2020/12/23 07:05:37;;;;;;;34.98;18.62;;;;;;;-2.23;98.21;99436.30;1814454;78;20133;-65
2020/12/23 07:08:07;;;;;;;35.03;20.00;;;;;;;-2.23;98.34;99439.78;1814208;78;21048;-65
2020/12/23 07:10:49;;;;;;;33.08;18.67;;;;;;;-2.22;98.42;99444.54;1814300;79;21128;-65
2020/12/23 07:13:23;;;;;;;32.55;18.50;;;;;;;-2.15;98.49;99441.44;1842274;77;22787;-65
2020/12/23 07:15:58;;;;;;;32.20;18.25;;;;;;;-2.15;98.52;99439.27;1817510;79;21476;-65
2020/12/23 07:18:30;;;;;;;33.13;18.85;;;;;;;-2.13;98.51;99441.11;1817530;78;22021;-65
2020/12/23 07:21:05;;;;;;;32.20;18.17;;;;;;;-2.09;98.51;99439.15;1817417;78;20977;-64
2020/12/23 07:23:35;;;;;;;33.83;18.55;;;;;;;-2.04;98.48;99434.20;1817478;78;20871;-65
2020/12/23 07:26:06;;;;;;;32.17;18.12;;;;;;;-2.03;98.44;99437.27;1817447;79;20926;-65
2020/12/23 07:28:42;;;;;;;32.83;17.98;;;;;;;-2.02;98.39;99427.00;1817503;78;20904;-65
2020/12/23 07:31:11;;;;;;;33.30;18.42;;;;;;;-1.98;98.36;99431.91;1817448;79;21235;-66
2020/12/23 07:33:40;;;;;;;28.23;17.75;;;;;;;-1.95;98.32;99421.70;1817364;78;21017;-66
2020/12/23 07:36:09;;;;;;;28.80;16.93;;;;;;;-1.93;98.27;99425.25;1817465;78;21001;-66
2020/12/23 07:38:38;;;;;;;28.92;17.00;;;;;;;-1.90;98.23;99422.81;1817525;79;21520;-66
2020/12/23 07:41:11;;;;;;;29.05;18.00;;;;;;;-1.87;98.18;99419.11;1817542;78;21555;-66
2020/12/23 07:43:39;;;;;;;28.90;17.37;;;;;;;-1.83;98.12;99418.44;1817424;79;21093;-64
2020/12/23 07:46:09;;;;;;;29.25;17.52;;;;;;;-1.81;98.01;99418.11;1817403;78;22095;-65
2020/12/23 07:48:37;;;;;;;29.05;17.92;;;;;;;-1.79;97.96;99415.59;1783990;79;21535;-65
2020/12/23 07:51:07;;;;;;;26.02;16.52;;;;;;;-1.80;97.89;99415.11;1817452;79;21151;-65
2020/12/23 07:53:36;;;;;;;28.80;17.95;;;;;;;-1.79;97.84;99410.01;1784810;79;21009;-65
2020/12/23 07:56:08;;;;;;;29.87;17.17;;;;;;;-1.80;97.77;99408.64;1784208;79;22025;-64
2020/12/23 07:58:37;;;;;;;29.95;16.30;;;;;;;-1.78;97.71;99405.72;1817593;79;21660;-64
2020/12/23 08:01:10;;;;;;;32.45;18.10;;;;;;;-1.72;97.68;99408.59;1817394;79;21591;-64
2020/12/23 08:03:38;;;;;;;30.05;18.52;;;;;;;-1.73;97.64;99409.41;1817465;79;21551;-64
2020/12/23 08:06:11;;;;;;;31.20;18.55;;;;;;;-1.70;97.62;99407.84;1817518;79;20957;-64
2020/12/23 08:08:41;;;;;;;26.87;17.02;;;;;;;-1.63;97.56;99409.02;1817398;78;22081;-65
2020/12/23 08:11:13;;;;;;;29.48;17.80;;;;;;;-1.60;97.54;99407.45;1817425;79;21552;-65
2020/12/23 08:13:41;;;;;;;31.97;17.82;;;;;;;-1.56;97.46;99398.54;1814834;78;21408;-65
2020/12/23 08:16:15;;;;;;;28.57;16.70;;;;;;;-1.58;97.40;99395.88;1814869;78;21559;-65
2020/12/23 08:18:44;;;;;;;27.32;17.77;;;;;;;-1.54;97.37;99395.61;1814774;78;20991;-64
2020/12/23 08:21:14;;;;;;;29.32;17.87;;;;;;;-1.53;97.29;99391.80;1814805;78;21360;-65
2020/12/23 08:23:42;;;;;;;27.95;17.60;;;;;;;-1.49;97.27;99387.24;1814446;78;22293;-65
2020/12/23 08:26:11;;;;;;;27.45;17.10;;;;;;;-1.46;97.20;99387.38;1814189;79;21473;-65
2020/12/23 08:28:42;;;;;;;27.93;17.10;;;;;;;-1.43;97.17;99390.10;1814271;79;21366;-65
2020/12/23 08:31:16;;;;;;;28.83;17.40;;;;;;;-1.40;97.10;99386.80;1814226;78;21028;-65
2020/12/23 08:33:45;;;;;;;28.05;17.12;;;;;;;-1.39;97.06;99384.28;1814266;78;22330;-65
2020/12/23 08:36:15;;;;;;;26.90;17.75;;;;;;;-1.34;97.00;99384.48;1814147;78;21004;-65
2020/12/23 08:38:43;;;;;;;29.50;17.23;;;;;;;-1.34;96.93;99381.89;1814237;78;21728;-65
2020/12/23 08:41:14;;;;;;;27.60;17.67;;;;;;;-1.31;96.85;99368.69;1814216;78;21451;-65
2020/12/23 08:43:48;;;;;;;29.23;18.93;;;;;;;-1.28;96.84;99362.76;1814473;78;20917;-65
2020/12/23 08:46:24;;;;;;;30.12;17.95;;;;;;;-1.27;96.82;99352.87;1814300;78;21747;-64
2020/12/23 08:48:53;;;;;;;30.08;18.05;;;;;;;-1.26;96.73;99354.66;1814132;78;20977;-64
2020/12/23 08:51:23;;;;;;;31.60;18.42;;;;;;;-1.24;96.72;99350.42;1814216;78;20944;-64
2020/12/23 08:53:55;;;;;;;29.00;17.02;;;;;;;-1.24;96.66;99354.31;1814296;78;21464;-64
2020/12/23 08:56:31;;;;;;;26.68;17.20;;;;;;;-1.21;96.61;99356.14;1814288;78;21064;-65
2020/12/23 08:59:05;;;;;;;31.45;19.32;;;;;;;-1.16;96.58;99344.28;1814167;78;21808;-65
2020/12/23 09:01:35;;;;;;;33.20;19.35;;;;;;;-1.08;96.54;99344.20;1814078;78;20929;-65
2020/12/23 09:04:11;;;;;;;26.57;16.95;;;;;;;-1.06;96.48;99347.74;1814158;78;21475;-65
2020/12/23 09:06:47;;;;;;;26.48;16.48;;;;;;;-1.02;96.44;99340.17;1814165;78;20972;-65
2020/12/23 09:09:22;;;;;;;28.40;17.52;;;;;;;-0.97;96.37;99332.19;1812009;78;20913;-65
2020/12/23 09:11:55;;;;;;;26.30;15.63;;;;;;;-0.93;96.27;99324.58;1813280;78;21236;-65
2020/12/23 09:14:29;;;;;;;26.20;16.75;;;;;;;-0.90;96.20;99328.18;1805893;79;26940;-64
2020/12/23 09:17:09;;;;;;;27.65;16.42;;;;;;;-0.87;96.16;99326.12;1805709;79;21477;-65
2020/12/23 09:20:01;;;;;;;27.35;16.30;;;;;;;-0.84;96.09;99317.19;1805622;79;21536;-65
2020/12/23 09:22:36;;;;;;;28.02;18.17;;;;;;;-0.80;96.03;99316.08;1734285;82;21524;-65
2020/12/23 09:25:22;;;;;;;29.75;17.55;;;;;;;-0.79;95.94;99306.61;1734135;82;21497;-65
2020/12/23 09:27:54;;;;;;;27.32;17.27;;;;;;;-0.77;95.90;99311.44;1734120;82;21659;-65
2020/12/23 09:30:35;;;;;;;27.02;16.25;;;;;;;-0.67;95.85;99298.04;1842044;77;22393;-64
2020/12/23 09:33:08;;;;;;;30.65;17.07;;;;;;;-0.69;95.81;99297.98;1817575;79;21535;-64
2020/12/23 09:35:39;;;;;;;28.83;16.80;;;;;;;-0.64;95.74;99296.45;1750542;81;22122;-65
2020/12/23 09:38:24;;;;;;;21.42;14.83;;;;;;;-0.62;95.68;99291.34;1781426;80;21080;-65
2020/12/23 09:40:56;;;;;;;24.75;16.65;;;;;;;-0.58;95.60;99286.75;1750463;82;21041;-64
2020/12/23 09:43:26;;;;;;;28.95;16.70;;;;;;;-0.58;95.52;99287.16;1746887;81;20963;-64
2020/12/23 09:45:57;;;;;;;26.33;15.43;;;;;;;-0.56;95.51;99282.92;1746803;81;20960;-64
2020/12/23 09:48:26;;;;;;;23.42;15.35;;;;;;;-0.52;95.46;99286.98;1746819;81;21207;-64
2020/12/23 09:50:55;;;;;;;23.87;15.90;;;;;;;-0.51;95.41;99274.51;1746742;82;21608;-64
2020/12/23 09:53:25;;;;;;;21.45;14.60;;;;;;;-0.48;95.37;99268.15;1746700;81;21025;-64
2020/12/23 09:55:55;;;;;;;22.02;14.23;;;;;;;-0.45;95.33;99276.48;1746759;82;21608;-64
2020/12/23 09:58:27;;;;;;;20.62;13.48;;;;;;;-0.42;95.29;99267.53;1746747;82;21046;-64
2020/12/23 10:00:55;;;;;;;24.87;15.20;;;;;;;-0.40;95.23;99273.25;1746824;81;22139;-64
2020/12/23 10:03:24;;;;;;;20.85;14.13;;;;;;;-0.38;95.16;99274.61;1746725;81;21180;-64
2020/12/23 10:05:53;;;;;;;20.35;14.47;;;;;;;-0.36;95.12;99260.88;1746737;82;21648;-64
2020/12/23 10:08:22;;;;;;;23.05;14.47;;;;;;;-0.34;95.09;99262.23;1744008;81;21160;-64
2020/12/23 10:10:50;;;;;;;31.97;14.85;;;;;;;-0.31;95.06;99259.76;1758134;80;21564;-67
2020/12/23 10:13:18;;;;;;;20.50;14.28;;;;;;;-0.27;95.04;99266.83;1729780;81;22295;-61
2020/12/23 10:15:47;;;;;;;23.32;16.17;;;;;;;-0.22;95.00;99266.59;1737830;81;21180;-64
2020/12/23 10:18:16;;;;;;;23.60;14.87;;;;;;;-0.18;94.93;99265.00;1717178;82;20998;-65
2020/12/23 10:20:45;;;;;;;22.37;14.65;;;;;;;-0.17;94.85;99256.39;1781319;80;21568;-64
2020/12/23 10:23:13;;;;;;;23.30;14.83;;;;;;;-0.15;94.79;99255.63;1781403;80;20970;-65
2020/12/23 10:25:41;;;;;;;24.72;16.23;;;;;;;-0.13;94.68;99242.72;1771092;80;22210;-59
2020/12/23 10:28:10;;;;;;;22.62;15.43;;;;;;;-0.10;94.62;99239.83;1775425;80;21508;-65
2020/12/23 10:30:39;;;;;;;23.42;14.95;;;;;;;-0.09;94.53;99234.23;1745738;80;21517;-65
2020/12/23 10:33:09;;;;;;;21.55;14.47;;;;;;;-0.10;94.43;99238.53;1769487;80;20934;-65
2020/12/23 10:35:38;;;;;;;20.37;14.43;;;;;;;-0.09;94.40;99232.52;1780687;80;21455;-65
2020/12/23 10:38:06;;;;;;;23.87;16.20;;;;;;;-0.08;94.33;99212.66;1772434;80;21509;-65
2020/12/23 10:40:35;;;;;;;24.95;15.45;;;;;;;-0.05;94.26;99221.44;1772366;81;21486;-63
2020/12/23 10:43:05;;;;;;;22.05;14.55;;;;;;;-0.04;94.23;99218.42;1771815;81;20928;-67
2020/12/23 10:45:36;;;;;;;21.90;15.40;;;;;;;-0.02;94.20;99215.06;1742585;80;21066;-63
2020/12/23 10:48:07;;;;;;;21.37;15.53;;;;;;;-0.01;94.17;99213.35;1781628;80;21500;-64
2020/12/23 10:50:37;;;;;;;25.48;14.95;;;;;;;0.03;94.12;99202.70;1786617;79;22333;-66
2020/12/23 10:53:07;;;;;;;20.55;13.48;;;;;;;0.03;94.09;99202.30;1786831;79;21577;-64
2020/12/23 10:55:36;;;;;;;25.10;16.20;;;;;;;0.04;94.07;99193.69;1784061;79;21188;-65
2020/12/23 10:58:05;;;;;;;20.55;14.43;;;;;;;0.06;94.01;99192.45;1779614;79;20876;-64
2020/12/23 11:00:33;;;;;;;25.92;16.25;;;;;;;0.07;93.98;99182.55;1774005;79;20933;-64
2020/12/23 11:03:02;;;;;;;24.00;14.95;;;;;;;0.08;93.96;99184.30;1772698;79;22111;-64
2020/12/23 11:05:31;;;;;;;21.73;13.62;;;;;;;0.10;93.93;99176.16;1771905;80;21017;-64
2020/12/23 11:07:59;;;;;;;24.15;16.52;;;;;;;0.12;93.91;99175.80;1771985;81;21006;-64
2020/12/23 11:10:28;;;;;;;23.92;15.25;;;;;;;0.11;93.91;99181.41;1772021;80;21699;-64
2020/12/23 11:12:57;;;;;;;21.95;15.15;;;;;;;0.14;93.87;99185.41;1771965;80;21441;-64
2020/12/23 11:15:25;;;;;;;22.82;15.23;;;;;;;0.16;93.85;99182.45;1772014;80;21995;-64
2020/12/23 11:17:54;;;;;;;27.80;16.77;;;;;;;0.18;93.80;99177.31;1771949;80;21559;-64
2020/12/23 11:20:22;;;;;;;24.82;16.30;;;;;;;0.19;93.76;99170.00;1772023;80;21572;-64
2020/12/23 11:22:51;;;;;;;23.57;15.95;;;;;;;0.17;93.74;99162.17;1776655;79;21611;-67
2020/12/23 11:25:21;;;;;;;20.95;14.45;;;;;;;0.16;93.74;99163.00;1779006;79;21053;-66
2020/12/23 11:27:50;;;;;;;20.68;14.75;;;;;;;0.18;93.72;99159.16;1772455;80;22116;-67
2020/12/23 11:30:18;;;;;;;22.50;15.23;;;;;;;0.20;93.69;99160.98;1783177;79;21485;-67